sensor_id;sensor_type;location;lat;lon;timestamp;temperature;humidity
4245;DHT22;2136;48.502;9.194;2023-06-22T00:00:47;23.40;99.20
4245;DHT22;2136;48.502;9.194;2023-06-22T00:03:14;23.30;99.10
4245;DHT22;2136;48.502;9.194;2023-06-22T00:05:40;23.30;98.60
4245;DHT22;2136;48.502;9.194;2023-06-22T00:08:07;23.30;97.90
4245;DHT22;2136;48.502;9.194;2023-06-22T00:10:34;23.30;97.80
4245;DHT22;2136;48.502;9.194;2023-06-22T00:13:03;23.30;98.10
4245;DHT22;2136;48.502;9.194;2023-06-22T00:15:30;23.20;98.20
4245;DHT22;2136;48.502;9.194;2023-06-22T00:17:57;23.20;98.00
4245;DHT22;2136;48.502;9.194;2023-06-22T00:20:25;23.20;98.00
4245;DHT22;2136;48.502;9.194;2023-06-22T00:22:54;23.20;97.70
4245;DHT22;2136;48.502;9.194;2023-06-22T00:25:21;23.20;97.40
4245;DHT22;2136;48.502;9.194;2023-06-22T00:27:48;23.20;97.30
4245;DHT22;2136;48.502;9.194;2023-06-22T00:30:17;23.20;97.30
4245;DHT22;2136;48.502;9.194;2023-06-22T00:32:45;23.20;97.90
4245;DHT22;2136;48.502;9.194;2023-06-22T00:35:12;23.20;96.90
4245;DHT22;2136;48.502;9.194;2023-06-22T00:37:39;23.20;96.80
4245;DHT22;2136;48.502;9.194;2023-06-22T00:40:08;23.20;97.30
4245;DHT22;2136;48.502;9.194;2023-06-22T00:42:36;23.20;97.70
4245;DHT22;2136;48.502;9.194;2023-06-22T00:45:04;23.10;98.10
4245;DHT22;2136;48.502;9.194;2023-06-22T00:47:34;23.10;98.50
4245;DHT22;2136;48.502;9.194;2023-06-22T00:50:01;23.00;98.40
4245;DHT22;2136;48.502;9.194;2023-06-22T00:52:29;23.00;98.40
4245;DHT22;2136;48.502;9.194;2023-06-22T00:54:57;22.90;98.40
4245;DHT22;2136;48.502;9.194;2023-06-22T00:57:27;22.90;98.90
4245;DHT22;2136;48.502;9.194;2023-06-22T00:59:54;22.90;98.90
4245;DHT22;2136;48.502;9.194;2023-06-22T01:02:21;22.80;98.90
4245;DHT22;2136;48.502;9.194;2023-06-22T01:04:50;22.80;99.00
4245;DHT22;2136;48.502;9.194;2023-06-22T01:07:21;22.80;99.00
4245;DHT22;2136;48.502;9.194;2023-06-22T01:09:53;22.70;99.10
4245;DHT22;2136;48.502;9.194;2023-06-22T01:12:23;22.70;99.50
4245;DHT22;2136;48.502;9.194;2023-06-22T01:14:55;22.70;99.40
4245;DHT22;2136;48.502;9.194;2023-06-22T01:17:24;22.60;99.70
4245;DHT22;2136;48.502;9.194;2023-06-22T01:19:55;22.60;99.90
4245;DHT22;2136;48.502;9.194;2023-06-22T01:22:24;22.60;99.90
4245;DHT22;2136;48.502;9.194;2023-06-22T01:25:00;22.50;99.90
4245;DHT22;2136;48.502;9.194;2023-06-22T01:27:40;22.50;99.90
4245;DHT22;2136;48.502;9.194;2023-06-22T01:30:14;22.40;99.90
4245;DHT22;2136;48.502;9.194;2023-06-22T01:32:43;22.40;99.90
4245;DHT22;2136;48.502;9.194;2023-06-22T01:35:10;22.40;99.90
4245;DHT22;2136;48.502;9.194;2023-06-22T01:37:38;22.30;99.90
4245;DHT22;2136;48.502;9.194;2023-06-22T01:40:07;22.30;99.90
4245;DHT22;2136;48.502;9.194;2023-06-22T01:42:35;22.30;99.90
4245;DHT22;2136;48.502;9.194;2023-06-22T01:45:04;22.30;99.90
4245;DHT22;2136;48.502;9.194;2023-06-22T01:47:33;22.20;99.90
4245;DHT22;2136;48.502;9.194;2023-06-22T01:50:01;22.20;99.90
4245;DHT22;2136;48.502;9.194;2023-06-22T01:52:28;22.20;99.90
4245;DHT22;2136;48.502;9.194;2023-06-22T01:54:55;22.10;99.90
4245;DHT22;2136;48.502;9.194;2023-06-22T01:57:23;22.10;99.90
4245;DHT22;2136;48.502;9.194;2023-06-22T01:59:55;22.10;99.90
4245;DHT22;2136;48.502;9.194;2023-06-22T02:02:25;22.00;99.90
4245;DHT22;2136;48.502;9.194;2023-06-22T02:04:58;21.90;99.90
4245;DHT22;2136;48.502;9.194;2023-06-22T02:07:31;21.90;99.90
4245;DHT22;2136;48.502;9.194;2023-06-22T02:10:00;21.90;99.90
4245;DHT22;2136;48.502;9.194;2023-06-22T02:12:29;21.90;99.90
4245;DHT22;2136;48.502;9.194;2023-06-22T02:14:57;21.90;99.90
4245;DHT22;2136;48.502;9.194;2023-06-22T02:17:26;21.90;99.90
4245;DHT22;2136;48.502;9.194;2023-06-22T02:19:53;21.90;99.90
4245;DHT22;2136;48.502;9.194;2023-06-22T02:22:21;21.90;99.90
4245;DHT22;2136;48.502;9.194;2023-06-22T02:24:49;21.80;99.90
4245;DHT22;2136;48.502;9.194;2023-06-22T02:27:16;21.90;99.90
4245;DHT22;2136;48.502;9.194;2023-06-22T02:29:42;21.80;99.90
4245;DHT22;2136;48.502;9.194;2023-06-22T02:32:09;21.80;99.90
4245;DHT22;2136;48.502;9.194;2023-06-22T02:34:36;21.80;99.90
4245;DHT22;2136;48.502;9.194;2023-06-22T02:37:03;21.80;99.90
4245;DHT22;2136;48.502;9.194;2023-06-22T02:39:32;21.80;99.90
4245;DHT22;2136;48.502;9.194;2023-06-22T02:41:58;21.70;99.90
4245;DHT22;2136;48.502;9.194;2023-06-22T02:44:25;21.70;99.90
4245;DHT22;2136;48.502;9.194;2023-06-22T02:46:52;21.70;99.90
4245;DHT22;2136;48.502;9.194;2023-06-22T02:49:19;21.70;99.90
4245;DHT22;2136;48.502;9.194;2023-06-22T02:51:47;21.60;99.90
4245;DHT22;2136;48.502;9.194;2023-06-22T02:54:14;21.60;99.90
4245;DHT22;2136;48.502;9.194;2023-06-22T02:56:43;21.60;99.90
4245;DHT22;2136;48.502;9.194;2023-06-22T02:59:10;21.50;99.90
4245;DHT22;2136;48.502;9.194;2023-06-22T03:01:37;21.50;99.90
4245;DHT22;2136;48.502;9.194;2023-06-22T03:04:05;21.50;99.90
4245;DHT22;2136;48.502;9.194;2023-06-22T03:06:32;21.50;99.90
4245;DHT22;2136;48.502;9.194;2023-06-22T03:09:00;21.50;99.90
4245;DHT22;2136;48.502;9.194;2023-06-22T03:11:29;21.50;99.90
4245;DHT22;2136;48.502;9.194;2023-06-22T03:13:57;21.50;99.90
4245;DHT22;2136;48.502;9.194;2023-06-22T03:16:24;21.40;99.90
4245;DHT22;2136;48.502;9.194;2023-06-22T03:18:51;21.40;99.90
4245;DHT22;2136;48.502;9.194;2023-06-22T03:21:19;21.40;99.90
4245;DHT22;2136;48.502;9.194;2023-06-22T03:23:46;21.40;99.90
4245;DHT22;2136;48.502;9.194;2023-06-22T03:26:12;21.40;99.90
4245;DHT22;2136;48.502;9.194;2023-06-22T03:28:39;21.40;99.90
4245;DHT22;2136;48.502;9.194;2023-06-22T03:31:08;21.40;99.90
4245;DHT22;2136;48.502;9.194;2023-06-22T03:33:35;21.30;99.90
4245;DHT22;2136;48.502;9.194;2023-06-22T03:36:02;21.30;99.90
4245;DHT22;2136;48.502;9.194;2023-06-22T03:38:29;21.30;99.90
4245;DHT22;2136;48.502;9.194;2023-06-22T03:40:56;21.30;99.90
4245;DHT22;2136;48.502;9.194;2023-06-22T03:43:23;21.30;99.90
4245;DHT22;2136;48.502;9.194;2023-06-22T03:45:50;21.20;99.90
4245;DHT22;2136;48.502;9.194;2023-06-22T03:48:18;21.20;99.90
4245;DHT22;2136;48.502;9.194;2023-06-22T03:50:44;21.20;99.90
4245;DHT22;2136;48.502;9.194;2023-06-22T03:53:11;21.20;99.90
4245;DHT22;2136;48.502;9.194;2023-06-22T03:55:42;21.20;99.90
4245;DHT22;2136;48.502;9.194;2023-06-22T03:58:14;21.20;99.90
4245;DHT22;2136;48.502;9.194;2023-06-22T04:00:41;21.20;99.90
4245;DHT22;2136;48.502;9.194;2023-06-22T04:03:07;21.30;99.90
4245;DHT22;2136;48.502;9.194;2023-06-22T04:05:35;21.40;99.90
4245;DHT22;2136;48.502;9.194;2023-06-22T04:08:04;21.30;99.90
4245;DHT22;2136;48.502;9.194;2023-06-22T04:10:31;21.30;99.90
4245;DHT22;2136;48.502;9.194;2023-06-22T04:12:58;21.30;99.90
4245;DHT22;2136;48.502;9.194;2023-06-22T04:15:24;21.30;99.90
4245;DHT22;2136;48.502;9.194;2023-06-22T04:17:51;21.40;99.90
4245;DHT22;2136;48.502;9.194;2023-06-22T04:20:18;21.40;99.90
4245;DHT22;2136;48.502;9.194;2023-06-22T04:22:46;21.40;99.90
4245;DHT22;2136;48.502;9.194;2023-06-22T04:25:14;21.30;99.90
4245;DHT22;2136;48.502;9.194;2023-06-22T04:27:40;21.30;99.90
4245;DHT22;2136;48.502;9.194;2023-06-22T04:30:08;21.40;99.90
4245;DHT22;2136;48.502;9.194;2023-06-22T04:32:36;21.40;99.90
4245;DHT22;2136;48.502;9.194;2023-06-22T04:35:03;21.40;99.90
4245;DHT22;2136;48.502;9.194;2023-06-22T04:37:32;21.40;99.90
4245;DHT22;2136;48.502;9.194;2023-06-22T04:40:00;21.50;99.90
4245;DHT22;2136;48.502;9.194;2023-06-22T04:42:29;21.50;99.90
4245;DHT22;2136;48.502;9.194;2023-06-22T04:44:56;21.50;99.90
4245;DHT22;2136;48.502;9.194;2023-06-22T04:47:22;21.50;99.90
4245;DHT22;2136;48.502;9.194;2023-06-22T04:49:49;21.50;99.90
4245;DHT22;2136;48.502;9.194;2023-06-22T04:52:16;21.50;99.90
4245;DHT22;2136;48.502;9.194;2023-06-22T04:54:45;21.60;99.90
4245;DHT22;2136;48.502;9.194;2023-06-22T04:57:15;21.60;99.90
4245;DHT22;2136;48.502;9.194;2023-06-22T04:59:42;21.60;99.90
4245;DHT22;2136;48.502;9.194;2023-06-22T05:02:09;21.60;99.90
4245;DHT22;2136;48.502;9.194;2023-06-22T05:04:36;21.70;99.90
4245;DHT22;2136;48.502;9.194;2023-06-22T05:07:04;21.70;99.90
4245;DHT22;2136;48.502;9.194;2023-06-22T05:09:31;21.70;99.90
4245;DHT22;2136;48.502;9.194;2023-06-22T05:11:59;21.80;99.90
4245;DHT22;2136;48.502;9.194;2023-06-22T05:14:29;21.80;99.90
4245;DHT22;2136;48.502;9.194;2023-06-22T05:16:56;21.90;99.90
4245;DHT22;2136;48.502;9.194;2023-06-22T05:19:24;21.90;99.90
4245;DHT22;2136;48.502;9.194;2023-06-22T05:21:59;22.00;99.90
4245;DHT22;2136;48.502;9.194;2023-06-22T05:24:25;22.00;99.90
4245;DHT22;2136;48.502;9.194;2023-06-22T05:26:52;22.00;99.90
4245;DHT22;2136;48.502;9.194;2023-06-22T05:29:19;22.10;99.90
4245;DHT22;2136;48.502;9.194;2023-06-22T05:31:49;22.10;99.90
4245;DHT22;2136;48.502;9.194;2023-06-22T05:34:15;22.20;99.90
4245;DHT22;2136;48.502;9.194;2023-06-22T05:36:42;22.20;99.90
4245;DHT22;2136;48.502;9.194;2023-06-22T05:39:13;22.30;99.90
4245;DHT22;2136;48.502;9.194;2023-06-22T05:41:40;22.40;99.90
4245;DHT22;2136;48.502;9.194;2023-06-22T05:44:07;22.40;99.90
4245;DHT22;2136;48.502;9.194;2023-06-22T05:46:34;22.50;99.90
4245;DHT22;2136;48.502;9.194;2023-06-22T05:49:02;22.50;99.90
4245;DHT22;2136;48.502;9.194;2023-06-22T05:51:29;22.60;99.90
4245;DHT22;2136;48.502;9.194;2023-06-22T05:53:55;22.60;99.90
4245;DHT22;2136;48.502;9.194;2023-06-22T05:56:22;22.60;99.90
4245;DHT22;2136;48.502;9.194;2023-06-22T05:58:49;22.70;99.90
4245;DHT22;2136;48.502;9.194;2023-06-22T06:01:17;22.70;99.90
4245;DHT22;2136;48.502;9.194;2023-06-22T06:03:43;22.80;99.90
4245;DHT22;2136;48.502;9.194;2023-06-22T06:06:12;22.80;99.90
4245;DHT22;2136;48.502;9.194;2023-06-22T06:08:39;22.80;99.90
4245;DHT22;2136;48.502;9.194;2023-06-22T06:11:06;22.90;99.90
4245;DHT22;2136;48.502;9.194;2023-06-22T06:13:32;22.90;99.90
4245;DHT22;2136;48.502;9.194;2023-06-22T06:15:59;22.90;99.90
4245;DHT22;2136;48.502;9.194;2023-06-22T06:18:26;23.00;99.90
4245;DHT22;2136;48.502;9.194;2023-06-22T06:20:53;23.10;99.90
4245;DHT22;2136;48.502;9.194;2023-06-22T06:23:21;23.10;99.90
4245;DHT22;2136;48.502;9.194;2023-06-22T06:25:48;23.20;99.90
4245;DHT22;2136;48.502;9.194;2023-06-22T06:28:15;23.20;99.90
4245;DHT22;2136;48.502;9.194;2023-06-22T06:30:42;23.30;99.90
4245;DHT22;2136;48.502;9.194;2023-06-22T06:33:09;23.30;99.40
4245;DHT22;2136;48.502;9.194;2023-06-22T06:35:36;23.40;99.00
4245;DHT22;2136;48.502;9.194;2023-06-22T06:38:03;23.50;98.10
4245;DHT22;2136;48.502;9.194;2023-06-22T06:40:31;23.60;97.70
4245;DHT22;2136;48.502;9.194;2023-06-22T06:42:58;23.60;97.40
4245;DHT22;2136;48.502;9.194;2023-06-22T06:45:25;23.60;97.30
4245;DHT22;2136;48.502;9.194;2023-06-22T06:47:54;23.70;97.30
4245;DHT22;2136;48.502;9.194;2023-06-22T06:50:21;23.80;97.10
4245;DHT22;2136;48.502;9.194;2023-06-22T06:52:48;23.90;97.10
4245;DHT22;2136;48.502;9.194;2023-06-22T06:55:15;24.00;97.00
4245;DHT22;2136;48.502;9.194;2023-06-22T06:57:43;24.10;96.70
4245;DHT22;2136;48.502;9.194;2023-06-22T07:00:14;24.20;96.20
4245;DHT22;2136;48.502;9.194;2023-06-22T07:02:42;24.20;95.80
4245;DHT22;2136;48.502;9.194;2023-06-22T07:05:10;24.30;95.40
4245;DHT22;2136;48.502;9.194;2023-06-22T07:07:37;24.40;94.90
4245;DHT22;2136;48.502;9.194;2023-06-22T07:10:04;24.50;94.30
4245;DHT22;2136;48.502;9.194;2023-06-22T07:12:31;24.60;94.30
4245;DHT22;2136;48.502;9.194;2023-06-22T07:15:03;24.70;93.40
4245;DHT22;2136;48.502;9.194;2023-06-22T07:17:30;24.80;93.20
4245;DHT22;2136;48.502;9.194;2023-06-22T07:19:57;24.80;92.90
4245;DHT22;2136;48.502;9.194;2023-06-22T07:22:24;24.90;92.60
4245;DHT22;2136;48.502;9.194;2023-06-22T07:24:50;25.00;91.90
4245;DHT22;2136;48.502;9.194;2023-06-22T07:27:17;25.00;90.60
4245;DHT22;2136;48.502;9.194;2023-06-22T07:29:45;25.10;89.40
4245;DHT22;2136;48.502;9.194;2023-06-22T07:33:27;25.20;86.50
4245;DHT22;2136;48.502;9.194;2023-06-22T07:35:54;25.30;88.10
4245;DHT22;2136;48.502;9.194;2023-06-22T07:38:20;25.30;87.10
4245;DHT22;2136;48.502;9.194;2023-06-22T07:40:47;25.40;86.40
4245;DHT22;2136;48.502;9.194;2023-06-22T07:43:14;25.50;86.00
4245;DHT22;2136;48.502;9.194;2023-06-22T07:45:48;25.50;85.50
4245;DHT22;2136;48.502;9.194;2023-06-22T07:48:17;25.60;86.10
4245;DHT22;2136;48.502;9.194;2023-06-22T07:50:45;25.70;86.40
4245;DHT22;2136;48.502;9.194;2023-06-22T07:53:12;25.80;85.40
4245;DHT22;2136;48.502;9.194;2023-06-22T07:55:39;26.00;84.50
4245;DHT22;2136;48.502;9.194;2023-06-22T07:58:06;26.10;84.20
4245;DHT22;2136;48.502;9.194;2023-06-22T08:00:33;26.20;83.90
4245;DHT22;2136;48.502;9.194;2023-06-22T08:03:00;26.40;84.50
4245;DHT22;2136;48.502;9.194;2023-06-22T08:05:29;26.50;82.80
4245;DHT22;2136;48.502;9.194;2023-06-22T08:07:57;26.70;81.50
4245;DHT22;2136;48.502;9.194;2023-06-22T08:10:24;26.70;80.40
4245;DHT22;2136;48.502;9.194;2023-06-22T08:12:51;26.70;79.40
4245;DHT22;2136;48.502;9.194;2023-06-22T08:15:18;26.80;78.50
4245;DHT22;2136;48.502;9.194;2023-06-22T08:17:45;26.80;78.40
4245;DHT22;2136;48.502;9.194;2023-06-22T08:20:12;26.90;77.70
4245;DHT22;2136;48.502;9.194;2023-06-22T08:22:39;27.00;76.90
4245;DHT22;2136;48.502;9.194;2023-06-22T08:25:09;27.10;76.20
4245;DHT22;2136;48.502;9.194;2023-06-22T08:27:36;27.20;75.60
4245;DHT22;2136;48.502;9.194;2023-06-22T08:30:03;27.30;74.60
4245;DHT22;2136;48.502;9.194;2023-06-22T08:32:30;27.40;73.90
4245;DHT22;2136;48.502;9.194;2023-06-22T08:34:58;27.50;72.40
4245;DHT22;2136;48.502;9.194;2023-06-22T08:37:25;27.60;71.70
4245;DHT22;2136;48.502;9.194;2023-06-22T08:39:56;27.70;71.30
4245;DHT22;2136;48.502;9.194;2023-06-22T08:42:24;27.90;69.90
4245;DHT22;2136;48.502;9.194;2023-06-22T08:44:51;28.10;69.30
4245;DHT22;2136;48.502;9.194;2023-06-22T08:47:19;28.30;67.50
4245;DHT22;2136;48.502;9.194;2023-06-22T08:49:46;28.40;67.00
4245;DHT22;2136;48.502;9.194;2023-06-22T08:52:13;28.50;66.20
4245;DHT22;2136;48.502;9.194;2023-06-22T08:54:40;28.50;65.10
4245;DHT22;2136;48.502;9.194;2023-06-22T08:57:07;28.60;65.40
4245;DHT22;2136;48.502;9.194;2023-06-22T08:59:35;28.70;64.90
4245;DHT22;2136;48.502;9.194;2023-06-22T09:02:02;28.70;64.90
4245;DHT22;2136;48.502;9.194;2023-06-22T09:04:29;28.90;64.60
4245;DHT22;2136;48.502;9.194;2023-06-22T09:06:59;29.00;64.60
4245;DHT22;2136;48.502;9.194;2023-06-22T09:09:26;29.10;64.60
4245;DHT22;2136;48.502;9.194;2023-06-22T09:11:53;29.20;65.00
4245;DHT22;2136;48.502;9.194;2023-06-22T09:14:20;29.30;64.10
4245;DHT22;2136;48.502;9.194;2023-06-22T09:16:48;29.40;63.40
4245;DHT22;2136;48.502;9.194;2023-06-22T09:19:15;29.50;62.90
4245;DHT22;2136;48.502;9.194;2023-06-22T09:21:42;29.60;63.10
4245;DHT22;2136;48.502;9.194;2023-06-22T09:24:09;29.80;63.40
4245;DHT22;2136;48.502;9.194;2023-06-22T09:26:36;30.00;63.00
4245;DHT22;2136;48.502;9.194;2023-06-22T09:29:04;30.10;62.50
4245;DHT22;2136;48.502;9.194;2023-06-22T09:31:31;30.30;61.70
4245;DHT22;2136;48.502;9.194;2023-06-22T09:33:59;30.40;60.80
4245;DHT22;2136;48.502;9.194;2023-06-22T09:36:26;30.50;60.90
4245;DHT22;2136;48.502;9.194;2023-06-22T09:38:53;30.60;60.30
4245;DHT22;2136;48.502;9.194;2023-06-22T09:41:24;30.70;59.90
4245;DHT22;2136;48.502;9.194;2023-06-22T09:43:51;30.90;59.70
4245;DHT22;2136;48.502;9.194;2023-06-22T09:46:18;31.10;59.80
4245;DHT22;2136;48.502;9.194;2023-06-22T09:48:47;31.30;59.80
4245;DHT22;2136;48.502;9.194;2023-06-22T09:51:15;31.60;59.70
4245;DHT22;2136;48.502;9.194;2023-06-22T09:53:42;32.00;59.30
4245;DHT22;2136;48.502;9.194;2023-06-22T09:56:09;32.40;58.50
4245;DHT22;2136;48.502;9.194;2023-06-22T09:58:40;32.60;57.10
4245;DHT22;2136;48.502;9.194;2023-06-22T10:01:07;32.70;55.90
4245;DHT22;2136;48.502;9.194;2023-06-22T10:03:35;32.60;55.50
4245;DHT22;2136;48.502;9.194;2023-06-22T10:06:02;32.60;56.00
4245;DHT22;2136;48.502;9.194;2023-06-22T10:08:30;32.60;55.50
4245;DHT22;2136;48.502;9.194;2023-06-22T10:10:57;32.60;55.00
4245;DHT22;2136;48.502;9.194;2023-06-22T10:13:24;32.60;55.00
4245;DHT22;2136;48.502;9.194;2023-06-22T10:15:51;32.60;55.40
4245;DHT22;2136;48.502;9.194;2023-06-22T10:18:18;32.80;56.50
4245;DHT22;2136;48.502;9.194;2023-06-22T10:20:48;33.20;55.60
4245;DHT22;2136;48.502;9.194;2023-06-22T10:23:16;33.90;54.10
4245;DHT22;2136;48.502;9.194;2023-06-22T10:25:45;34.70;53.10
4245;DHT22;2136;48.502;9.194;2023-06-22T10:28:12;35.50;52.20
4245;DHT22;2136;48.502;9.194;2023-06-22T10:30:39;36.20;50.70
4245;DHT22;2136;48.502;9.194;2023-06-22T10:33:06;36.90;48.20
4245;DHT22;2136;48.502;9.194;2023-06-22T10:35:33;37.90;46.50
4245;DHT22;2136;48.502;9.194;2023-06-22T10:38:00;38.90;45.70
4245;DHT22;2136;48.502;9.194;2023-06-22T10:40:27;39.20;44.20
4245;DHT22;2136;48.502;9.194;2023-06-22T10:42:55;39.60;43.40
4245;DHT22;2136;48.502;9.194;2023-06-22T10:45:22;40.10;42.70
4245;DHT22;2136;48.502;9.194;2023-06-22T10:47:49;40.10;42.60
4245;DHT22;2136;48.502;9.194;2023-06-22T10:50:16;40.10;43.00
4245;DHT22;2136;48.502;9.194;2023-06-22T10:52:42;39.90;43.10
4245;DHT22;2136;48.502;9.194;2023-06-22T10:55:10;39.90;43.10
4245;DHT22;2136;48.502;9.194;2023-06-22T10:57:37;39.70;43.10
4245;DHT22;2136;48.502;9.194;2023-06-22T11:00:09;39.40;43.70
4245;DHT22;2136;48.502;9.194;2023-06-22T11:02:37;39.20;43.00
4245;DHT22;2136;48.502;9.194;2023-06-22T11:05:04;39.00;43.50
4245;DHT22;2136;48.502;9.194;2023-06-22T11:07:31;39.10;44.00
4245;DHT22;2136;48.502;9.194;2023-06-22T11:09:58;39.40;43.70
4245;DHT22;2136;48.502;9.194;2023-06-22T11:12:25;39.50;42.20
4245;DHT22;2136;48.502;9.194;2023-06-22T11:14:52;39.60;42.30
4245;DHT22;2136;48.502;9.194;2023-06-22T11:17:20;39.80;42.30
4245;DHT22;2136;48.502;9.194;2023-06-22T11:19:47;39.70;42.50
4245;DHT22;2136;48.502;9.194;2023-06-22T11:22:14;39.40;42.20
4245;DHT22;2136;48.502;9.194;2023-06-22T11:24:40;39.10;42.80
4245;DHT22;2136;48.502;9.194;2023-06-22T11:27:08;38.80;43.20
4245;DHT22;2136;48.502;9.194;2023-06-22T11:29:34;38.50;43.30
4245;DHT22;2136;48.502;9.194;2023-06-22T11:32:01;38.20;43.10
4245;DHT22;2136;48.502;9.194;2023-06-22T11:34:29;37.70;43.50
4245;DHT22;2136;48.502;9.194;2023-06-22T11:36:56;37.20;44.20
4245;DHT22;2136;48.502;9.194;2023-06-22T11:39:23;36.70;44.90
4245;DHT22;2136;48.502;9.194;2023-06-22T11:41:50;36.20;45.60
4245;DHT22;2136;48.502;9.194;2023-06-22T11:44:17;35.80;46.20
4245;DHT22;2136;48.502;9.194;2023-06-22T11:46:44;35.40;46.60
4245;DHT22;2136;48.502;9.194;2023-06-22T11:49:10;35.20;47.40
4245;DHT22;2136;48.502;9.194;2023-06-22T11:51:39;35.30;48.00
4245;DHT22;2136;48.502;9.194;2023-06-22T11:54:05;35.70;49.00
4245;DHT22;2136;48.502;9.194;2023-06-22T11:56:33;36.30;49.00
4245;DHT22;2136;48.502;9.194;2023-06-22T11:58:59;36.50;48.40
4245;DHT22;2136;48.502;9.194;2023-06-22T12:01:27;36.70;48.30
4245;DHT22;2136;48.502;9.194;2023-06-22T12:03:53;37.00;47.70
4245;DHT22;2136;48.502;9.194;2023-06-22T12:06:20;37.20;47.40
4245;DHT22;2136;48.502;9.194;2023-06-22T12:08:48;37.10;47.10
4245;DHT22;2136;48.502;9.194;2023-06-22T12:11:15;36.90;46.90
4245;DHT22;2136;48.502;9.194;2023-06-22T12:13:42;36.70;46.80
4245;DHT22;2136;48.502;9.194;2023-06-22T12:16:09;36.40;46.60
4245;DHT22;2136;48.502;9.194;2023-06-22T12:18:37;36.00;47.20
4245;DHT22;2136;48.502;9.194;2023-06-22T12:21:04;35.60;48.10
4245;DHT22;2136;48.502;9.194;2023-06-22T12:23:31;35.20;48.70
4245;DHT22;2136;48.502;9.194;2023-06-22T12:25:59;34.90;49.20
4245;DHT22;2136;48.502;9.194;2023-06-22T12:28:27;34.50;49.70
4245;DHT22;2136;48.502;9.194;2023-06-22T12:30:53;34.10;50.20
4245;DHT22;2136;48.502;9.194;2023-06-22T12:33:20;33.70;50.70
4245;DHT22;2136;48.502;9.194;2023-06-22T12:35:47;33.50;51.50
4245;DHT22;2136;48.502;9.194;2023-06-22T12:38:15;33.20;52.00
4245;DHT22;2136;48.502;9.194;2023-06-22T12:40:42;33.00;52.60
4245;DHT22;2136;48.502;9.194;2023-06-22T12:43:10;32.90;52.90
4245;DHT22;2136;48.502;9.194;2023-06-22T12:45:37;32.80;53.20
4245;DHT22;2136;48.502;9.194;2023-06-22T12:48:05;32.70;53.40
4245;DHT22;2136;48.502;9.194;2023-06-22T12:50:32;32.60;53.50
4245;DHT22;2136;48.502;9.194;2023-06-22T12:52:58;32.50;53.80
4245;DHT22;2136;48.502;9.194;2023-06-22T12:55:27;32.40;54.60
4245;DHT22;2136;48.502;9.194;2023-06-22T12:57:54;32.40;55.00
4245;DHT22;2136;48.502;9.194;2023-06-22T13:00:22;32.30;55.30
4245;DHT22;2136;48.502;9.194;2023-06-22T13:02:49;32.30;55.30
4245;DHT22;2136;48.502;9.194;2023-06-22T13:05:16;32.30;55.40
4245;DHT22;2136;48.502;9.194;2023-06-22T13:07:43;32.50;55.50
4245;DHT22;2136;48.502;9.194;2023-06-22T13:10:11;32.60;55.40
4245;DHT22;2136;48.502;9.194;2023-06-22T13:12:38;32.80;55.50
4245;DHT22;2136;48.502;9.194;2023-06-22T13:15:06;33.00;55.50
4245;DHT22;2136;48.502;9.194;2023-06-22T13:17:34;33.20;55.10
4245;DHT22;2136;48.502;9.194;2023-06-22T13:20:01;33.40;55.00
4245;DHT22;2136;48.502;9.194;2023-06-22T13:22:31;33.60;55.00
4245;DHT22;2136;48.502;9.194;2023-06-22T13:24:59;33.70;54.60
4245;DHT22;2136;48.502;9.194;2023-06-22T13:27:26;33.90;54.60
4245;DHT22;2136;48.502;9.194;2023-06-22T13:29:53;34.00;54.20
4245;DHT22;2136;48.502;9.194;2023-06-22T13:32:20;34.00;53.70
4245;DHT22;2136;48.502;9.194;2023-06-22T13:34:48;33.90;53.40
4245;DHT22;2136;48.502;9.194;2023-06-22T13:37:15;33.70;52.20
4245;DHT22;2136;48.502;9.194;2023-06-22T13:39:42;33.60;52.30
4245;DHT22;2136;48.502;9.194;2023-06-22T13:42:09;33.40;52.50
4245;DHT22;2136;48.502;9.194;2023-06-22T13:44:35;33.30;53.00
4245;DHT22;2136;48.502;9.194;2023-06-22T13:47:03;33.20;53.20
4245;DHT22;2136;48.502;9.194;2023-06-22T13:49:30;33.00;53.20
4245;DHT22;2136;48.502;9.194;2023-06-22T13:51:59;32.90;53.30
4245;DHT22;2136;48.502;9.194;2023-06-22T13:54:26;32.80;53.50
4245;DHT22;2136;48.502;9.194;2023-06-22T13:56:53;32.70;52.90
4245;DHT22;2136;48.502;9.194;2023-06-22T13:59:19;32.60;52.90
4245;DHT22;2136;48.502;9.194;2023-06-22T14:01:47;32.60;53.00
4245;DHT22;2136;48.502;9.194;2023-06-22T14:04:14;32.50;52.70
4245;DHT22;2136;48.502;9.194;2023-06-22T14:06:40;32.30;53.40
4245;DHT22;2136;48.502;9.194;2023-06-22T14:09:09;32.20;53.90
4245;DHT22;2136;48.502;9.194;2023-06-22T14:11:35;32.10;53.70
4245;DHT22;2136;48.502;9.194;2023-06-22T14:14:03;32.00;53.70
4245;DHT22;2136;48.502;9.194;2023-06-22T14:16:30;31.90;54.50
4245;DHT22;2136;48.502;9.194;2023-06-22T14:18:56;31.90;55.40
4245;DHT22;2136;48.502;9.194;2023-06-22T14:21:23;31.90;55.90
4245;DHT22;2136;48.502;9.194;2023-06-22T14:23:50;32.00;56.00
4245;DHT22;2136;48.502;9.194;2023-06-22T14:26:18;32.10;56.10
4245;DHT22;2136;48.502;9.194;2023-06-22T14:28:45;32.30;55.80
4245;DHT22;2136;48.502;9.194;2023-06-22T14:31:16;32.30;55.40
4245;DHT22;2136;48.502;9.194;2023-06-22T14:33:48;32.40;54.80
4245;DHT22;2136;48.502;9.194;2023-06-22T14:36:16;32.50;54.70
4245;DHT22;2136;48.502;9.194;2023-06-22T14:38:43;32.60;54.60
4245;DHT22;2136;48.502;9.194;2023-06-22T14:41:11;32.70;54.60
4245;DHT22;2136;48.502;9.194;2023-06-22T14:43:43;32.70;54.50
4245;DHT22;2136;48.502;9.194;2023-06-22T14:46:10;32.90;54.40
4245;DHT22;2136;48.502;9.194;2023-06-22T14:48:37;33.20;53.80
4245;DHT22;2136;48.502;9.194;2023-06-22T14:51:04;33.50;53.60
4245;DHT22;2136;48.502;9.194;2023-06-22T14:53:31;33.70;53.10
4245;DHT22;2136;48.502;9.194;2023-06-22T14:55:58;33.90;52.90
4245;DHT22;2136;48.502;9.194;2023-06-22T14:58:27;34.00;52.60
4245;DHT22;2136;48.502;9.194;2023-06-22T15:00:55;33.90;52.20
4245;DHT22;2136;48.502;9.194;2023-06-22T15:03:22;33.80;51.40
4245;DHT22;2136;48.502;9.194;2023-06-22T15:05:53;33.60;50.80
4245;DHT22;2136;48.502;9.194;2023-06-22T15:08:20;33.50;50.40
4245;DHT22;2136;48.502;9.194;2023-06-22T15:10:47;33.30;50.50
4245;DHT22;2136;48.502;9.194;2023-06-22T15:13:14;33.20;51.00
4245;DHT22;2136;48.502;9.194;2023-06-22T15:15:42;33.10;51.20
4245;DHT22;2136;48.502;9.194;2023-06-22T15:18:10;33.00;51.10
4245;DHT22;2136;48.502;9.194;2023-06-22T15:20:37;33.00;51.00
4245;DHT22;2136;48.502;9.194;2023-06-22T15:23:05;32.90;51.30
4245;DHT22;2136;48.502;9.194;2023-06-22T15:25:32;32.80;51.70
4245;DHT22;2136;48.502;9.194;2023-06-22T15:27:59;32.70;51.20
4245;DHT22;2136;48.502;9.194;2023-06-22T15:30:26;32.60;50.10
4245;DHT22;2136;48.502;9.194;2023-06-22T15:32:53;32.50;49.60
4245;DHT22;2136;48.502;9.194;2023-06-22T15:35:21;32.40;48.90
4245;DHT22;2136;48.502;9.194;2023-06-22T15:37:48;32.20;46.10
4245;DHT22;2136;48.502;9.194;2023-06-22T15:40:16;32.10;44.00
4245;DHT22;2136;48.502;9.194;2023-06-22T15:42:44;31.90;43.20
4245;DHT22;2136;48.502;9.194;2023-06-22T15:45:13;31.80;43.30
4245;DHT22;2136;48.502;9.194;2023-06-22T15:47:39;31.70;42.70
4245;DHT22;2136;48.502;9.194;2023-06-22T15:50:07;31.60;42.00
4245;DHT22;2136;48.502;9.194;2023-06-22T15:52:35;31.40;42.10
4245;DHT22;2136;48.502;9.194;2023-06-22T15:55:02;31.40;42.20
4245;DHT22;2136;48.502;9.194;2023-06-22T15:57:29;31.20;42.20
4245;DHT22;2136;48.502;9.194;2023-06-22T15:59:56;31.10;42.50
4245;DHT22;2136;48.502;9.194;2023-06-22T16:02:23;31.00;42.50
4245;DHT22;2136;48.502;9.194;2023-06-22T16:04:52;30.90;42.40